Time;durP1;ratioP1;P1;durP2;ratioP2;P2;SDS_P1;SDS_P2;PMS_P1;PMS_P2;Temp;Humidity;BMP_temperature;BMP_pressure;BME280_temperature;BME280_humidity;BME280_pressure;Samples;Min_cycle;Max_cycle;Signal;HPM_P1;HPM_P2
2021/06/02 00:01:50;;;;;;;8.60;5.27;;;14.90;67.30;;;;;;5026228;28;20665;-70
2021/06/02 00:04:19;;;;;;;9.80;4.97;;;14.90;67.40;;;;;;5031083;28;20202;-70
2021/06/02 00:06:49;;;;;;;10.07;5.73;;;14.90;67.40;;;;;;5030627;28;20666;-69
2021/06/02 00:09:16;;;;;;;8.27;5.43;;;14.90;67.30;;;;;;5027061;28;20248;-70
2021/06/02 00:11:43;;;;;;;8.57;5.60;;;14.90;67.40;;;;;;5031164;28;20231;-69
2021/06/02 00:14:10;;;;;;;10.30;5.20;;;14.90;67.30;;;;;;5031860;28;20233;-69
2021/06/02 00:16:39;;;;;;;8.07;4.77;;;14.90;67.40;;;;;;5023091;28;20203;-70
2021/06/02 00:19:06;;;;;;;9.23;5.20;;;14.90;67.40;;;;;;5030125;28;20210;-69
2021/06/02 00:21:34;;;;;;;9.73;5.40;;;14.90;67.40;;;;;;5030900;28;20206;-69
2021/06/02 00:24:00;;;;;;;9.27;5.30;;;14.90;67.50;;;;;;5030117;28;20198;-69
2021/06/02 00:26:28;;;;;;;9.63;5.10;;;14.90;68.20;;;;;;5031628;28;20241;-69
2021/06/02 00:28:55;;;;;;;10.77;5.10;;;14.90;67.30;;;;;;5032090;28;20219;-69
2021/06/02 00:31:21;;;;;;;5.60;4.40;;;14.80;67.20;;;;;;5031745;28;20301;-69
2021/06/02 00:33:49;;;;;;;6.97;4.80;;;14.80;67.00;;;;;;5028467;28;20302;-70
2021/06/02 00:36:20;;;;;;;12.57;7.47;;;14.80;66.80;;;;;;5025355;28;20306;-70
2021/06/02 00:38:47;;;;;;;8.33;5.27;;;14.80;66.70;;;;;;5028473;28;20567;-68
2021/06/02 00:41:13;;;;;;;6.30;4.83;;;14.80;66.70;;;;;;5030932;28;20676;-69
2021/06/02 00:43:41;;;;;;;7.30;4.60;;;14.80;66.60;;;;;;5029674;28;20211;-70
2021/06/02 00:46:07;;;;;;;8.33;4.33;;;14.80;66.40;;;;;;5033116;28;20675;-71
2021/06/02 00:48:37;;;;;;;4.67;3.77;;;14.80;66.30;;;;;;5031594;28;20252;-69
2021/06/02 00:51:05;;;;;;;6.13;3.90;;;14.80;66.20;;;;;;5025972;28;20234;-69
2021/06/02 00:53:35;;;;;;;6.63;4.37;;;14.80;65.80;;;;;;5026567;28;20225;-70
2021/06/02 00:56:03;;;;;;;7.27;3.83;;;14.80;65.50;;;;;;5031778;28;20232;-70
2021/06/02 00:58:31;;;;;;;5.87;4.00;;;14.80;65.30;;;;;;5025627;28;20589;-69
2021/06/02 01:00:58;;;;;;;6.07;4.10;;;14.90;65.50;;;;;;5031796;28;20205;-68
2021/06/02 01:03:28;;;;;;;8.77;4.93;;;14.90;65.50;;;;;;5021744;28;20262;-67
2021/06/02 01:05:55;;;;;;;8.43;4.73;;;14.90;65.60;;;;;;5030076;28;20211;-66
2021/06/02 01:08:24;;;;;;;7.50;4.60;;;14.80;65.80;;;;;;5029235;28;20652;-67
2021/06/02 01:10:51;;;;;;;8.70;4.70;;;14.80;66.10;;;;;;5029821;28;20245;-67
2021/06/02 01:13:19;;;;;;;7.50;4.20;;;14.80;66.60;;;;;;5031288;28;20637;-66
2021/06/02 01:15:48;;;;;;;8.03;4.50;;;14.80;66.90;;;;;;5024303;28;20206;-67
2021/06/02 01:18:15;;;;;;;7.17;4.57;;;14.80;67.30;;;;;;5028313;28;20207;-67
2021/06/02 01:20:41;;;;;;;8.23;4.40;;;14.80;67.30;;;;;;5026426;28;20300;-68
2021/06/02 01:23:12;;;;;;;6.23;4.70;;;14.80;67.20;;;;;;5029951;28;20208;-67
2021/06/02 01:25:39;;;;;;;7.73;4.73;;;14.70;67.20;;;;;;5021057;28;20195;-67
2021/06/02 01:28:06;;;;;;;9.33;4.43;;;14.60;67.30;;;;;;5029330;28;20203;-68
2021/06/02 01:30:33;;;;;;;10.53;5.13;;;14.70;67.60;;;;;;5028655;28;20722;-67
2021/06/02 01:33:28;;;;;;;6.10;4.67;;;14.60;67.70;;;;;;5029294;28;20231;-67
2021/06/02 01:36:03;;;;;;;8.20;4.70;;;14.60;68.00;;;;;;5027097;28;20219;-67
2021/06/02 01:38:58;;;;;;;6.07;4.73;;;14.60;68.20;;;;;;5017756;28;20320;-67
2021/06/02 01:41:28;;;;;;;7.63;5.03;;;14.60;69.20;;;;;;5029097;28;20209;-67
2021/06/02 01:44:27;;;;;;;6.37;4.63;;;14.60;68.50;;;;;;5021282;28;20206;-67
2021/06/02 01:47:42;;;;;;;9.43;4.53;;;14.60;68.40;;;;;;5027182;28;20965;-68
2021/06/02 01:50:37;;;;;;;7.27;4.90;;;14.60;68.30;;;;;;5021172;28;20207;-67
2021/06/02 01:53:41;;;;;;;6.37;4.60;;;14.60;68.60;;;;;;5029250;28;20241;-67
2021/06/02 01:56:39;;;;;;;7.23;4.60;;;14.60;68.90;;;;;;5025896;28;20259;-66
2021/06/02 01:59:43;;;;;;;7.87;4.27;;;14.60;68.90;;;;;;5029461;28;20539;-67
2021/06/02 02:02:54;;;;;;;6.80;4.50;;;14.60;69.20;;;;;;5023843;28;20752;-67
2021/06/02 02:05:50;;;;;;;8.40;4.60;;;14.60;69.20;;;;;;4987328;28;20262;-67
2021/06/02 02:08:40;;;;;;;5.53;4.30;;;14.60;69.20;;;;;;5024083;28;20675;-68
2021/06/02 02:11:13;;;;;;;6.50;4.17;;;14.60;69.20;;;;;;5028422;28;20237;-68
2021/06/02 02:14:05;;;;;;;8.00;4.27;;;14.60;69.20;;;;;;5028376;28;20245;-67
2021/06/02 02:16:47;;;;;;;6.90;4.70;;;14.60;69.60;;;;;;5022332;28;20552;-67
2021/06/02 02:19:31;;;;;;;7.20;4.43;;;14.50;69.80;;;;;;5031722;28;20202;-67
2021/06/02 02:22:03;;;;;;;5.90;4.10;;;14.50;70.20;;;;;;5028458;28;20285;-67
2021/06/02 02:24:40;;;;;;;5.23;4.60;;;14.40;70.30;;;;;;5029846;28;20211;-67
2021/06/02 02:27:25;;;;;;;10.67;5.37;;;14.40;70.60;;;;;;5026304;28;20194;-68
2021/06/02 02:29:58;;;;;;;6.47;4.60;;;14.40;70.90;;;;;;5031440;28;20276;-68
2021/06/02 02:32:47;;;;;;;6.87;5.30;;;14.30;71.00;;;;;;5022505;28;20223;-68
2021/06/02 02:35:30;;;;;;;7.93;4.97;;;14.30;71.30;;;;;;5029654;28;20636;-68
2021/06/02 02:38:05;;;;;;;8.70;4.37;;;14.30;71.50;;;;;;5026605;28;20214;-67
2021/06/02 02:40:44;;;;;;;7.70;5.00;;;14.30;71.60;;;;;;5034618;28;20667;-67
2021/06/02 02:43:14;;;;;;;6.37;4.90;;;14.30;71.90;;;;;;5028986;28;20230;-67
2021/06/02 02:45:50;;;;;;;5.90;4.50;;;14.30;72.00;;;;;;5034465;28;20228;-67
2021/06/02 02:48:24;;;;;;;12.67;7.30;;;14.20;72.10;;;;;;5034199;28;20647;-67
2021/06/02 02:51:04;;;;;;;9.20;6.63;;;14.20;72.20;;;;;;5034043;28;20214;-67
2021/06/02 02:53:38;;;;;;;7.33;5.03;;;14.30;72.50;;;;;;5030625;28;20288;-67
2021/06/02 02:56:12;;;;;;;7.90;4.47;;;14.30;72.40;;;;;;5032630;28;20206;-68
2021/06/02 02:58:46;;;;;;;7.17;4.00;;;14.40;72.20;;;;;;5031339;28;20202;-68
2021/06/02 03:01:20;;;;;;;7.67;4.23;;;14.40;71.90;;;;;;5030232;28;20613;-68
2021/06/02 03:03:53;;;;;;;6.67;4.17;;;14.40;71.70;;;;;;5034375;28;20211;-66
2021/06/02 03:06:25;;;;;;;9.40;4.97;;;14.50;72.00;;;;;;5022687;28;20239;-68
2021/06/02 03:08:57;;;;;;;7.03;4.83;;;14.60;72.20;;;;;;5032148;28;20199;-67
2021/06/02 03:11:31;;;;;;;7.80;4.23;;;14.60;72.20;;;;;;5031578;28;20229;-68
2021/06/02 03:14:06;;;;;;;7.00;4.13;;;14.70;72.20;;;;;;5034867;28;20226;-68
2021/06/02 03:16:37;;;;;;;5.83;3.97;;;14.70;71.70;;;;;;5032980;28;20253;-67
2021/06/02 03:19:09;;;;;;;5.87;4.97;;;14.80;71.20;;;;;;5023948;28;20213;-68
2021/06/02 03:21:55;;;;;;;9.80;6.33;;;14.90;70.80;;;;;;5033266;28;20214;-67
2021/06/02 03:24:48;;;;;;;6.73;4.30;;;14.90;70.50;;;;;;5032048;28;20229;-66
2021/06/02 03:27:20;;;;;;;6.27;3.70;;;14.90;70.40;;;;;;5032362;28;20229;-68
2021/06/02 03:29:53;;;;;;;6.37;4.23;;;14.90;70.20;;;;;;5030463;28;20234;-67
2021/06/02 03:32:48;;;;;;;5.27;3.80;;;15.00;70.10;;;;;;5033765;28;20587;-67
2021/06/02 03:35:20;;;;;;;5.37;4.13;;;15.00;69.60;;;;;;5031868;28;20654;-67
2021/06/02 03:37:59;;;;;;;5.90;4.10;;;15.00;70.40;;;;;;5029376;28;20206;-67
2021/06/02 03:40:36;;;;;;;6.37;3.70;;;15.00;69.60;;;;;;5031123;28;20198;-67
2021/06/02 03:43:16;;;;;;;6.53;4.07;;;15.10;69.70;;;;;;5019668;28;20290;-67
2021/06/02 03:45:51;;;;;;;7.33;4.70;;;15.10;69.70;;;;;;5024849;28;20233;-67
2021/06/02 03:48:40;;;;;;;5.47;4.00;;;15.10;69.70;;;;;;5032912;28;20244;-67
2021/06/02 03:51:19;;;;;;;8.37;4.20;;;15.20;69.80;;;;;;5025411;28;20227;-68
2021/06/02 03:54:02;;;;;;;5.83;3.73;;;15.10;69.70;;;;;;5030791;28;20202;-66
2021/06/02 03:56:54;;;;;;;6.07;4.27;;;15.20;69.80;;;;;;5034147;28;20554;-66
2021/06/02 03:59:30;;;;;;;5.77;3.80;;;15.20;69.80;;;;;;5024466;28;20652;-67
2021/06/02 04:02:01;;;;;;;8.03;4.00;;;15.20;69.80;;;;;;5033900;28;20629;-67
2021/06/02 04:04:35;;;;;;;6.43;3.80;;;15.30;69.90;;;;;;5030153;28;20278;-67
2021/06/02 04:07:05;;;;;;;5.13;3.97;;;15.30;69.90;;;;;;5030658;28;20222;-68
2021/06/02 04:09:42;;;;;;;5.93;3.77;;;15.40;70.00;;;;;;5035304;28;20216;-67
2021/06/02 04:12:19;;;;;;;7.97;4.00;;;15.40;70.00;;;;;;5031478;28;20226;-67
2021/06/02 04:14:54;;;;;;;8.00;4.10;;;15.40;70.10;;;;;;5030214;28;20316;-68
2021/06/02 04:17:23;;;;;;;6.40;3.97;;;15.40;70.00;;;;;;5028970;28;20210;-67
2021/06/02 04:19:52;;;;;;;6.47;4.27;;;15.40;70.00;;;;;;5025282;28;20227;-67
2021/06/02 04:22:20;;;;;;;6.17;4.00;;;15.40;70.00;;;;;;5032411;28;20215;-68
2021/06/02 04:24:48;;;;;;;5.87;3.80;;;15.50;70.10;;;;;;5030440;28;20225;-67
2021/06/02 04:27:16;;;;;;;6.13;4.20;;;15.50;69.60;;;;;;5030721;28;20325;-67
2021/06/02 04:29:44;;;;;;;4.97;3.40;;;15.60;68.90;;;;;;5032404;28;20273;-67
2021/06/02 04:32:11;;;;;;;4.47;3.23;;;15.70;68.60;;;;;;5027949;28;20230;-68
2021/06/02 04:34:37;;;;;;;5.13;3.83;;;15.70;68.60;;;;;;5029858;28;20211;-68
2021/06/02 04:37:07;;;;;;;7.83;3.63;;;15.70;68.30;;;;;;5024903;28;20575;-68
2021/06/02 04:39:34;;;;;;;8.80;3.60;;;15.70;68.00;;;;;;5020837;28;20207;-68
2021/06/02 04:42:04;;;;;;;4.83;3.27;;;15.70;68.30;;;;;;5029104;28;20294;-68
2021/06/02 04:44:33;;;;;;;5.53;3.50;;;15.70;68.20;;;;;;5026168;28;20215;-67
2021/06/02 04:47:00;;;;;;;3.60;3.30;;;15.80;68.30;;;;;;5026435;28;20243;-67
2021/06/02 04:49:36;;;;;;;6.43;3.37;;;15.70;68.20;;;;;;5026049;28;20667;-67
2021/06/02 04:52:33;;;;;;;6.60;3.50;;;15.70;68.50;;;;;;5025271;28;20297;-67
2021/06/02 04:55:27;;;;;;;6.07;3.53;;;15.70;68.90;;;;;;5031681;28;20249;-67
2021/06/02 04:58:26;;;;;;;6.17;3.77;;;15.70;69.50;;;;;;5028909;28;20644;-67
2021/06/02 05:01:22;;;;;;;5.67;3.70;;;15.70;70.20;;;;;;5026866;28;20215;-67
2021/06/02 05:04:19;;;;;;;6.90;3.83;;;15.70;70.30;;;;;;5028228;28;20666;-66
2021/06/02 05:07:27;;;;;;;6.53;3.87;;;15.70;70.30;;;;;;5004657;28;20549;-68
2021/06/02 05:10:16;;;;;;;6.07;3.83;;;15.70;70.60;;;;;;5012967;28;20214;-66
2021/06/02 05:13:23;;;;;;;6.57;3.80;;;15.60;70.80;;;;;;5034152;28;20219;-67
2021/06/02 05:16:40;;;;;;;5.97;4.07;;;15.60;71.40;;;;;;5030110;28;20286;-67
2021/06/02 05:19:57;;;;;;;8.23;4.43;;;15.50;71.60;;;;;;5042763;28;20314;-67
2021/06/02 05:22:57;;;;;;;7.77;4.30;;;15.50;72.40;;;;;;5029524;28;20206;-67
2021/06/02 05:26:08;;;;;;;9.23;4.60;;;15.60;72.90;;;;;;5029850;28;20209;-67
2021/06/02 05:28:55;;;;;;;9.07;4.03;;;15.60;73.20;;;;;;5032397;28;20647;-69
2021/06/02 05:32:17;;;;;;;8.70;4.40;;;15.70;73.90;;;;;;5020219;28;20214;-68
2021/06/02 05:35:20;;;;;;;6.50;4.27;;;15.90;74.90;;;;;;5003106;28;20657;-68
2021/06/02 05:38:40;;;;;;;11.27;4.10;;;16.00;75.40;;;;;;5030810;28;20715;-69
2021/06/02 05:41:09;;;;;;;9.07;3.63;;;16.20;76.20;;;;;;5032560;28;20230;-69
2021/06/02 05:44:24;;;;;;;12.23;4.00;;;16.30;76.00;;;;;;5033073;28;20286;-68
2021/06/02 05:47:20;;;;;;;8.23;4.03;;;16.50;75.80;;;;;;5027800;28;20324;-67
2021/06/02 05:50:18;;;;;;;10.43;4.13;;;16.60;75.80;;;;;;5030025;28;20634;-69
2021/06/02 05:53:23;;;;;;;7.27;3.93;;;16.80;75.30;;;;;;4996306;28;20222;-70
2021/06/02 05:56:20;;;;;;;6.77;4.07;;;16.90;75.00;;;;;;5029562;28;20208;-67
2021/06/02 05:59:04;;;;;;;10.07;4.50;;;16.90;74.30;;;;;;5028698;28;20455;-68
2021/06/02 06:02:07;;;;;;;10.07;3.77;;;17.00;73.80;;;;;;5022601;28;20311;-69
2021/06/02 06:05:00;;;;;;;6.20;3.10;;;17.00;73.30;;;;;;5011251;28;20575;-68
2021/06/02 06:07:56;;;;;;;3.63;2.37;;;17.10;73.00;;;;;;5028821;28;20238;-69
2021/06/02 06:11:26;;;;;;;4.97;3.10;;;17.20;71.90;;;;;;5025210;28;20287;-68
2021/06/02 06:14:28;;;;;;;9.03;2.60;;;17.40;71.10;;;;;;5025655;28;20651;-72
2021/06/02 06:17:33;;;;;;;10.43;2.77;;;17.60;69.30;;;;;;5025576;28;20289;-67
2021/06/02 06:20:26;;;;;;;4.67;2.67;;;17.70;68.20;;;;;;5036098;28;20213;-69
2021/06/02 06:23:34;;;;;;;4.77;2.37;;;17.90;67.10;;;;;;5032141;28;20652;-68
2021/06/02 06:26:09;;;;;;;4.23;2.80;;;17.90;65.90;;;;;;5009963;28;20206;-67
2021/06/02 06:28:42;;;;;;;3.17;2.53;;;18.00;65.70;;;;;;5035755;28;20210;-68
2021/06/02 06:31:15;;;;;;;4.63;2.53;;;18.00;65.70;;;;;;5032532;28;20219;-69
2021/06/02 06:33:43;;;;;;;10.60;2.80;;;18.10;65.80;;;;;;5035685;28;20289;-68
2021/06/02 06:36:10;;;;;;;3.73;2.57;;;18.20;65.60;;;;;;5035959;28;20242;-70
2021/06/02 06:38:54;;;;;;;4.00;2.80;;;18.30;65.10;;;;;;5035506;28;20210;-65
2021/06/02 06:41:25;;;;;;;4.27;2.60;;;18.40;65.00;;;;;;5034475;28;20206;-68
2021/06/02 06:43:53;;;;;;;4.43;2.57;;;18.50;64.20;;;;;;5034365;28;20680;-69
2021/06/02 06:46:23;;;;;;;5.50;2.63;;;18.60;63.50;;;;;;5033863;28;20214;-68
2021/06/02 06:48:51;;;;;;;6.30;2.43;;;18.70;63.70;;;;;;5035248;28;20207;-68
2021/06/02 06:51:20;;;;;;;5.10;2.33;;;18.80;62.90;;;;;;5035855;28;20223;-70
2021/06/02 06:53:47;;;;;;;3.63;2.13;;;18.90;62.70;;;;;;5033579;28;20625;-70
2021/06/02 06:56:16;;;;;;;4.00;2.50;;;19.00;62.30;;;;;;5039427;28;20622;-70
2021/06/02 06:58:45;;;;;;;6.75;2.80;;;19.00;60.90;;;;;;5037220;28;20288;-68
2021/06/02 07:01:14;;;;;;;4.93;2.30;;;19.10;61.40;;;;;;5035874;28;20203;-70
2021/06/02 07:03:42;;;;;;;5.60;2.50;;;19.10;60.50;;;;;;5034445;28;20551;-68
2021/06/02 07:06:11;;;;;;;5.80;2.40;;;19.20;61.10;;;;;;5022725;28;20302;-69
2021/06/02 07:08:39;;;;;;;4.78;1.90;;;19.30;60.00;;;;;;5029220;28;20242;-68
2021/06/02 07:11:05;;;;;;;4.18;2.40;;;19.30;59.40;;;;;;5031175;28;20229;-72
2021/06/02 07:13:32;;;;;;;5.18;2.22;;;19.40;59.70;;;;;;5033276;28;20238;-68
2021/06/02 07:16:01;;;;;;;5.18;2.85;;;19.40;59.90;;;;;;5029128;28;20626;-68
2021/06/02 07:18:30;;;;;;;6.78;2.13;;;19.50;58.10;;;;;;5034877;28;20206;-67
2021/06/02 07:21:00;;;;;;;5.60;2.10;;;19.40;57.50;;;;;;5029283;28;20663;-67
2021/06/02 07:23:27;;;;;;;6.20;2.00;;;19.50;58.00;;;;;;5029707;28;20213;-67
2021/06/02 07:25:54;;;;;;;3.08;1.73;;;19.50;57.70;;;;;;5033707;28;20221;-67
2021/06/02 07:28:30;;;;;;;3.70;2.30;;;19.60;57.00;;;;;;5034044;28;20202;-66
2021/06/02 07:30:56;;;;;;;6.97;1.83;;;19.60;55.70;;;;;;5033892;28;20237;-70
2021/06/02 07:33:23;;;;;;;4.30;1.73;;;19.60;55.40;;;;;;5034510;28;20210;-68
2021/06/02 07:35:49;;;;;;;6.55;1.75;;;19.60;55.80;;;;;;5027588;28;20203;-69
2021/06/02 07:38:17;;;;;;;8.65;2.28;;;19.70;55.90;;;;;;5032837;28;20210;-71
2021/06/02 07:40:43;;;;;;;4.38;1.80;;;19.80;55.50;;;;;;5035034;28;20209;-68
2021/06/02 07:43:10;;;;;;;5.00;2.20;;;19.90;55.60;;;;;;5035141;28;20625;-69
2021/06/02 07:45:36;;;;;;;3.28;1.80;;;20.00;55.00;;;;;;5034245;28;20229;-68
2021/06/02 07:48:03;;;;;;;7.65;1.75;;;20.20;54.80;;;;;;5032644;28;20225;-69
2021/06/02 07:50:29;;;;;;;6.05;2.00;;;20.30;53.30;;;;;;5031100;28;20296;-69
2021/06/02 07:52:56;;;;;;;1.98;1.67;;;20.50;53.10;;;;;;5030181;28;20236;-69
2021/06/02 07:55:24;;;;;;;6.90;1.90;;;20.80;53.20;;;;;;5030734;28;20215;-68
2021/06/02 07:57:50;;;;;;;3.45;1.70;;;21.00;52.60;;;;;;5032850;28;20198;-69
2021/06/02 08:00:17;;;;;;;2.03;1.38;;;21.20;52.30;;;;;;5031125;28;20293;-70
2021/06/02 08:02:43;;;;;;;4.30;1.80;;;21.30;52.00;;;;;;5026657;28;20199;-68
2021/06/02 08:05:13;;;;;;;4.15;2.08;;;21.30;51.50;;;;;;5024580;28;20265;-69
2021/06/02 08:07:39;;;;;;;7.22;2.08;;;21.20;51.70;;;;;;5026958;28;20284;-68
2021/06/02 08:10:06;;;;;;;3.97;2.05;;;21.00;51.80;;;;;;5021079;28;20252;-70
2021/06/02 08:12:34;;;;;;;4.35;1.80;;;21.00;52.10;;;;;;5027509;28;20249;-70
2021/06/02 08:15:00;;;;;;;5.70;2.00;;;21.00;52.30;;;;;;5024530;28;20270;-69
2021/06/02 08:17:27;;;;;;;5.88;2.00;;;21.00;52.30;;;;;;5023643;28;20297;-67
2021/06/02 08:19:53;;;;;;;3.53;1.70;;;21.10;52.60;;;;;;5027824;28;20297;-70
2021/06/02 08:22:20;;;;;;;6.15;2.50;;;21.20;52.50;;;;;;5027571;28;20203;-70
2021/06/02 08:24:46;;;;;;;1.63;1.45;;;21.30;52.00;;;;;;5024787;28;20246;-69
2021/06/02 08:27:13;;;;;;;2.28;2.03;;;21.40;52.10;;;;;;5027196;28;20325;-69
2021/06/02 08:29:42;;;;;;;2.65;1.40;;;21.50;51.60;;;;;;5031857;28;20246;-69
2021/06/02 08:32:08;;;;;;;2.00;1.60;;;21.40;48.90;;;;;;5031774;28;20226;-72
2021/06/02 08:34:36;;;;;;;2.67;1.67;;;21.30;47.80;;;;;;5030566;28;20274;-69
2021/06/02 08:37:02;;;;;;;1.30;1.10;;;21.10;47.90;;;;;;5029180;28;20293;-70
2021/06/02 08:39:29;;;;;;;2.50;1.58;;;21.10;47.80;;;;;;5021639;28;20263;-69
2021/06/02 08:41:55;;;;;;;5.63;1.83;;;21.10;48.40;;;;;;5022742;28;20207;-70
2021/06/02 08:44:22;;;;;;;2.40;1.52;;;21.10;49.00;;;;;;5026020;28;20207;-70
2021/06/02 08:46:50;;;;;;;2.60;1.45;;;21.10;49.10;;;;;;5025273;28;20228;-69
2021/06/02 08:49:18;;;;;;;1.63;1.27;;;21.20;49.20;;;;;;5022630;28;20222;-69
2021/06/02 08:51:45;;;;;;;2.17;1.60;;;21.30;48.80;;;;;;5023672;28;20903;-70
2021/06/02 08:54:12;;;;;;;4.65;2.30;;;21.30;48.40;;;;;;5023114;28;20202;-70
2021/06/02 08:56:43;;;;;;;2.67;1.80;;;21.30;48.40;;;;;;5020512;28;20257;-70
2021/06/02 08:59:10;;;;;;;8.18;4.80;;;21.40;48.40;;;;;;5027721;28;20293;-68
2021/06/02 09:01:36;;;;;;;1.85;1.23;;;21.40;48.10;;;;;;5025506;28;20210;-67
2021/06/02 09:04:09;;;;;;;2.40;1.50;;;21.50;47.90;;;;;;5022583;28;20243;-68
2021/06/02 09:06:37;;;;;;;2.55;1.50;;;21.60;47.50;;;;;;5021348;28;20651;-67
2021/06/02 09:09:05;;;;;;;2.03;1.73;;;21.60;47.30;;;;;;5024267;28;20210;-69
2021/06/02 09:11:37;;;;;;;3.35;1.95;;;21.90;47.50;;;;;;5025504;28;20218;-69
2021/06/02 09:14:19;;;;;;;3.33;1.50;;;22.10;47.60;;;;;;5027109;28;20368;-70
2021/06/02 09:16:49;;;;;;;1.58;1.40;;;22.10;46.30;;;;;;5023542;28;20332;-69
2021/06/02 09:19:30;;;;;;;1.85;1.20;;;22.10;46.60;;;;;;5029542;28;20286;-69
2021/06/02 09:21:57;;;;;;;2.38;1.30;;;22.20;46.10;;;;;;5022064;28;20207;-70
2021/06/02 09:24:44;;;;;;;2.25;1.48;;;22.30;46.00;;;;;;5030383;28;20298;-70
2021/06/02 09:27:10;;;;;;;2.63;1.60;;;22.40;45.80;;;;;;5027676;28;20234;-71
2021/06/02 09:29:51;;;;;;;3.30;1.70;;;22.50;45.70;;;;;;5028978;28;20344;-71
2021/06/02 09:32:19;;;;;;;1.75;1.42;;;22.60;45.10;;;;;;5026047;28;20219;-71
2021/06/02 09:34:47;;;;;;;4.88;1.52;;;22.80;44.70;;;;;;5027276;28;20246;-71
2021/06/02 09:37:14;;;;;;;2.05;1.75;;;22.90;44.40;;;;;;5027196;28;20298;-71
2021/06/02 09:39:42;;;;;;;2.75;1.45;;;22.90;44.60;;;;;;5024770;28;20301;-69
2021/06/02 09:42:19;;;;;;;2.60;1.50;;;23.10;44.30;;;;;;5028887;28;20661;-72
2021/06/02 09:45:03;;;;;;;2.35;1.55;;;23.20;43.40;;;;;;5022065;28;20660;-71
2021/06/02 09:47:44;;;;;;;5.68;1.90;;;23.30;43.20;;;;;;5027656;28;20203;-70
2021/06/02 09:50:14;;;;;;;4.05;1.60;;;23.30;43.20;;;;;;5028908;28;20682;-72
2021/06/02 09:52:44;;;;;;;2.08;1.30;;;23.20;43.00;;;;;;5036790;28;20222;-71
2021/06/02 09:55:22;;;;;;;1.67;1.50;;;23.10;43.00;;;;;;5031406;28;20309;-70
2021/06/02 09:57:55;;;;;;;5.45;1.65;;;23.00;43.90;;;;;;5036035;28;20212;-69
2021/06/02 10:00:22;;;;;;;3.13;1.30;;;23.30;44.10;;;;;;5037678;28;20307;-68
2021/06/02 10:02:58;;;;;;;5.68;1.40;;;23.60;43.50;;;;;;5025978;28;20736;-69
2021/06/02 10:05:33;;;;;;;3.70;1.70;;;23.80;43.20;;;;;;5031498;28;20623;-69
2021/06/02 10:08:00;;;;;;;2.78;1.50;;;23.70;42.90;;;;;;5027069;28;20203;-69
2021/06/02 10:10:26;;;;;;;1.80;1.70;;;23.50;42.90;;;;;;5034362;28;20287;-69
2021/06/02 10:13:02;;;;;;;3.42;1.40;;;23.30;42.50;;;;;;5035570;28;20249;-70
2021/06/02 10:15:34;;;;;;;5.10;1.83;;;23.00;42.40;;;;;;5027962;28;20210;-69
2021/06/02 10:18:01;;;;;;;1.63;1.20;;;22.80;43.10;;;;;;5035310;28;20302;-68
2021/06/02 10:20:29;;;;;;;2.35;2.00;;;22.90;43.80;;;;;;5033374;28;20538;-67
2021/06/02 10:22:58;;;;;;;1.50;1.40;;;23.10;43.90;;;;;;5036026;28;20217;-68
2021/06/02 10:25:26;;;;;;;2.10;1.40;;;23.30;43.50;;;;;;5031768;28;20206;-69
2021/06/02 10:27:54;;;;;;;4.10;1.50;;;23.40;42.80;;;;;;5034330;28;20271;-68
2021/06/02 10:30:22;;;;;;;3.25;1.48;;;23.40;42.50;;;;;;5029970;28;20262;-68
2021/06/02 10:32:50;;;;;;;3.38;1.55;;;23.40;42.40;;;;;;5030829;28;20622;-68
2021/06/02 10:35:17;;;;;;;2.25;1.70;;;23.50;42.60;;;;;;5034046;28;20305;-70
2021/06/02 10:37:47;;;;;;;4.75;1.98;;;23.50;42.70;;;;;;5027659;28;20215;-68
2021/06/02 10:40:19;;;;;;;4.30;1.95;;;23.50;42.70;;;;;;5033600;28;20234;-69
2021/06/02 10:42:57;;;;;;;3.13;1.50;;;23.40;41.90;;;;;;5034241;28;20213;-68
2021/06/02 10:45:28;;;;;;;4.00;1.40;;;23.30;42.40;;;;;;5033482;28;20567;-69
2021/06/02 10:47:59;;;;;;;2.67;1.13;;;23.30;43.00;;;;;;5026298;28;20668;-68
2021/06/02 10:50:37;;;;;;;1.83;1.55;;;23.20;42.80;;;;;;5033814;28;20199;-68
2021/06/02 10:53:22;;;;;;;4.20;1.30;;;23.20;42.60;;;;;;5035584;28;20215;-68
2021/06/02 10:55:50;;;;;;;2.20;1.60;;;23.30;43.20;;;;;;5033347;28;20571;-69
2021/06/02 10:58:28;;;;;;;3.03;1.58;;;23.50;42.70;;;;;;5034318;28;20293;-70
2021/06/02 11:01:13;;;;;;;3.00;1.48;;;23.60;42.30;;;;;;5032236;28;20296;-69
2021/06/02 11:03:42;;;;;;;6.13;1.73;;;23.80;42.30;;;;;;5036265;28;20671;-68
2021/06/02 11:06:36;;;;;;;2.03;1.58;;;23.80;42.60;;;;;;5034133;28;20241;-69
2021/06/02 11:09:16;;;;;;;3.65;2.03;;;24.00;42.40;;;;;;5041374;28;20214;-69
2021/06/02 11:11:44;;;;;;;4.88;1.88;;;24.20;42.10;;;;;;5028200;28;20265;-66
2021/06/02 11:14:26;;;;;;;2.40;1.45;;;24.50;41.90;;;;;;5032254;28;20233;-68
2021/06/02 11:17:01;;;;;;;2.75;1.40;;;24.70;41.00;;;;;;5034123;28;20215;-69
2021/06/02 11:19:30;;;;;;;3.15;1.30;;;24.70;40.70;;;;;;5034285;28;20256;-68
2021/06/02 11:22:01;;;;;;;2.90;1.77;;;24.60;40.40;;;;;;5034630;28;20203;-69
2021/06/02 11:24:39;;;;;;;2.25;1.42;;;24.50;40.90;;;;;;5033614;28;20218;-69
2021/06/02 11:27:48;;;;;;;5.30;2.40;;;24.40;41.50;;;;;;5034794;28;20670;-67
2021/06/02 11:30:27;;;;;;;2.55;1.80;;;24.30;41.70;;;;;;5034834;28;20241;-68
2021/06/02 11:33:13;;;;;;;4.20;1.80;;;24.50;41.90;;;;;;5033160;28;20234;-66
2021/06/02 11:36:08;;;;;;;2.47;1.85;;;24.50;41.10;;;;;;5033952;28;20210;-68
2021/06/02 11:38:35;;;;;;;6.47;1.50;;;24.50;40.90;;;;;;5032321;28;20241;-71
2021/06/02 11:41:03;;;;;;;5.00;1.60;;;24.30;40.90;;;;;;5035025;28;20709;-68
2021/06/02 11:43:29;;;;;;;2.50;1.52;;;24.00;41.00;;;;;;5034282;28;20222;-71
2021/06/02 11:45:59;;;;;;;2.92;1.92;;;23.80;41.40;;;;;;5034468;28;20260;-67
2021/06/02 11:48:29;;;;;;;2.75;1.63;;;23.80;42.30;;;;;;5034862;28;20256;-69
2021/06/02 11:50:59;;;;;;;1.35;1.25;;;23.90;42.30;;;;;;5021535;28;20293;-67
2021/06/02 11:53:36;;;;;;;3.78;1.50;;;24.20;42.30;;;;;;5035466;28;20222;-66
2021/06/02 11:56:04;;;;;;;3.00;1.58;;;24.40;41.50;;;;;;5029886;28;20706;-66
2021/06/02 11:58:31;;;;;;;1.83;1.55;;;24.40;41.20;;;;;;5024743;28;20210;-69
2021/06/02 12:00:57;;;;;;;3.42;2.10;;;24.40;41.30;;;;;;5033555;28;20554;-65
2021/06/02 12:03:25;;;;;;;2.55;1.38;;;24.30;41.20;;;;;;5032804;28;20202;-66
2021/06/02 12:05:53;;;;;;;4.10;1.88;;;24.20;41.10;;;;;;5033043;28;20547;-68
2021/06/02 12:08:20;;;;;;;2.17;1.67;;;23.80;40.80;;;;;;5041492;28;20213;-69
2021/06/02 12:10:48;;;;;;;3.58;2.25;;;23.40;41.30;;;;;;5031790;28;20245;-71
2021/06/02 12:13:18;;;;;;;3.58;1.58;;;23.10;41.70;;;;;;5033929;28;20233;-72
2021/06/02 12:15:46;;;;;;;3.70;2.28;;;22.90;42.00;;;;;;5029034;28;20289;-71
2021/06/02 12:18:40;;;;;;;8.85;2.13;;;22.80;42.10;;;;;;5034756;28;20207;-72
2021/06/02 12:21:18;;;;;;;4.03;2.22;;;22.60;42.20;;;;;;5033470;28;20199;-70
2021/06/02 12:24:04;;;;;;;2.58;1.88;;;22.60;43.00;;;;;;5034003;28;20199;-72
2021/06/02 12:26:33;;;;;;;7.15;2.10;;;22.70;42.40;;;;;;5030012;28;20201;-70
2021/06/02 12:29:02;;;;;;;3.15;1.30;;;22.90;41.80;;;;;;5027728;28;20370;-72
2021/06/02 12:31:48;;;;;;;2.80;1.92;;;23.10;41.70;;;;;;5024835;28;20795;-69
2021/06/02 12:34:17;;;;;;;2.08;1.40;;;23.00;42.30;;;;;;5026210;28;20250;-69
2021/06/02 12:36:48;;;;;;;6.97;1.90;;;22.90;42.80;;;;;;5030503;28;20214;-69
2021/06/02 12:39:17;;;;;;;6.28;2.13;;;22.70;42.90;;;;;;5027072;28;20634;-72
2021/06/02 12:41:46;;;;;;;3.10;1.60;;;22.70;43.20;;;;;;5030740;28;20297;-72
2021/06/02 12:44:15;;;;;;;2.03;1.40;;;22.80;42.80;;;;;;5022490;28;20386;-72
2021/06/02 12:46:55;;;;;;;1.90;1.40;;;22.90;42.60;;;;;;5025495;28;20715;-70
2021/06/02 12:49:22;;;;;;;3.67;2.10;;;23.10;42.70;;;;;;5025487;28;20214;-71
2021/06/02 12:51:54;;;;;;;3.83;1.58;;;23.20;42.20;;;;;;5026829;28;20234;-71
2021/06/02 12:54:21;;;;;;;2.42;1.48;;;23.40;41.90;;;;;;5028301;28;20561;-71
2021/06/02 12:56:47;;;;;;;4.70;2.03;;;23.60;42.30;;;;;;5029826;28;20297;-71
2021/06/02 12:59:15;;;;;;;4.55;2.10;;;23.80;41.40;;;;;;5031830;28;20227;-71
2021/06/02 13:01:42;;;;;;;3.50;1.63;;;24.00;41.20;;;;;;5029773;28;20206;-71
2021/06/02 13:04:13;;;;;;;2.58;1.50;;;24.10;40.80;;;;;;5031293;28;20207;-71
2021/06/02 13:06:39;;;;;;;2.20;1.58;;;24.20;40.30;;;;;;5030191;28;20293;-69
2021/06/02 13:09:10;;;;;;;5.05;2.08;;;24.30;40.10;;;;;;5022236;28;20202;-70
2021/06/02 13:11:36;;;;;;;2.20;1.58;;;24.30;40.30;;;;;;5027877;28;20214;-70
2021/06/02 13:14:04;;;;;;;2.22;2.03;;;24.30;40.40;;;;;;5025437;28;20380;-69
2021/06/02 13:16:32;;;;;;;9.45;2.38;;;24.40;40.90;;;;;;5030399;28;20211;-69
2021/06/02 13:19:00;;;;;;;3.90;2.13;;;24.50;40.60;;;;;;5030402;28;20222;-70
2021/06/02 13:21:31;;;;;;;2.20;1.50;;;24.40;41.00;;;;;;5026253;28;20214;-69
2021/06/02 13:24:11;;;;;;;2.67;1.33;;;24.20;40.30;;;;;;5024354;28;20218;-70
2021/06/02 13:26:38;;;;;;;2.80;1.58;;;23.90;40.70;;;;;;5022753;28;20641;-68
2021/06/02 13:29:09;;;;;;;3.90;1.92;;;23.70;41.10;;;;;;5024158;28;20731;-69